createdAt,value
2023-04-28T00:00:32.444Z,5.4385
2023-04-28T00:01:35.420Z,3.9077
2023-04-28T00:02:38.430Z,4.4000
2023-04-28T00:03:41.524Z,5.3000
2023-04-28T00:04:44.402Z,3.5538
2023-04-28T00:05:47.234Z,3.6923
2023-04-28T00:06:50.196Z,5.1846
2023-04-28T00:07:53.141Z,4.5385
2023-04-28T00:08:56.104Z,5.1385
2023-04-28T00:09:59.064Z,4.5077
2023-04-28T00:11:02.003Z,3.8385
2023-04-28T00:12:04.982Z,3.9308
2023-04-28T00:13:07.939Z,3.2846
2023-04-28T00:14:10.866Z,4.2385
2023-04-28T00:15:13.845Z,4.2154
2023-04-28T00:16:16.803Z,4.1000
2023-04-28T00:17:19.781Z,4.2615
2023-04-28T00:18:22.815Z,3.5769
2023-04-28T00:19:25.642Z,5.1846
2023-04-28T00:20:28.580Z,3.7846
2023-04-28T00:21:31.551Z,3.8000
2023-04-28T00:22:34.512Z,3.8154
2023-04-28T00:23:37.473Z,3.6231
2023-04-28T00:24:40.423Z,4.1000
2023-04-28T00:25:43.398Z,3.3000
2023-04-28T00:26:46.315Z,3.7154
2023-04-28T00:27:49.362Z,3.8385
2023-04-28T00:28:52.223Z,4.6846
2023-04-28T00:29:55.215Z,4.2231
2023-04-28T00:30:58.267Z,4.8385
2023-04-28T00:32:01.161Z,4.3385
2023-04-28T00:33:04.106Z,3.8231
2023-04-28T00:34:07.015Z,3.5000
2023-04-28T00:35:09.962Z,3.8077
2023-04-28T00:36:12.924Z,3.4615
2023-04-28T00:37:16.013Z,3.0923
2023-04-28T00:38:18.832Z,3.2769
2023-04-28T00:39:21.785Z,4.5923
2023-04-28T00:40:24.733Z,4.8769
2023-04-28T00:41:27.729Z,4.7231
2023-04-28T00:42:30.655Z,4.5923
2023-04-28T00:43:33.612Z,5.4615
2023-04-28T00:44:36.585Z,5.2538
2023-04-28T00:45:39.533Z,5.3615
2023-04-28T00:46:42.466Z,5.5000
2023-04-28T00:47:45.435Z,4.7154
2023-04-28T00:48:48.444Z,4.8538
2023-04-28T00:49:51.381Z,4.7154
2023-04-28T00:50:54.290Z,4.1769
2023-04-28T00:51:57.278Z,4.1615
2023-04-28T00:53:00.183Z,4.7385
2023-04-28T00:54:03.149Z,4.9615
2023-04-28T00:55:06.086Z,4.7000
2023-04-28T00:56:09.020Z,5.1923
2023-04-28T00:57:11.997Z,5.0077
2023-04-28T00:58:14.928Z,4.9385
2023-04-28T00:59:17.872Z,6.5231
2023-04-28T01:00:20.833Z,4.4769
2023-04-28T01:01:23.813Z,5.1077
2023-04-28T01:02:26.948Z,4.0000
2023-04-28T01:03:29.743Z,5.5385
2023-04-28T01:04:32.652Z,5.1000
2023-04-28T01:05:35.556Z,4.4308
2023-04-28T01:06:38.539Z,5.5462
2023-04-28T01:07:41.489Z,4.8462
2023-04-28T01:08:44.406Z,5.0385
2023-04-28T01:09:47.351Z,6.2231
2023-04-28T01:10:50.304Z,3.8000
2023-04-28T01:11:53.237Z,3.7923
2023-04-28T01:12:56.218Z,3.9769
2023-04-28T01:13:59.142Z,5.1000
2023-04-28T01:15:02.109Z,4.9538
2023-04-28T01:16:05.078Z,3.6385
2023-04-28T01:17:08.001Z,3.8462
2023-04-28T01:18:10.958Z,3.8154
2023-04-28T01:19:13.917Z,4.4538
2023-04-28T01:20:16.864Z,4.4538
2023-04-28T01:21:19.806Z,4.0154
2023-04-28T01:22:22.773Z,5.4923
2023-04-28T01:23:25.701Z,4.7462
2023-04-28T01:24:28.685Z,4.8538
2023-04-28T01:25:31.643Z,5.0308
2023-04-28T01:26:34.586Z,4.2462
2023-04-28T01:27:37.557Z,4.4538
2023-04-28T01:28:40.475Z,4.8692
2023-04-28T01:29:43.439Z,5.8846
2023-04-28T01:30:46.386Z,4.1077
2023-04-28T01:31:49.391Z,5.8769
2023-04-28T01:32:52.292Z,4.8385
2023-04-28T01:33:55.241Z,4.7846
2023-04-28T01:34:58.215Z,5.1231
2023-04-28T01:36:01.140Z,4.9846
2023-04-28T01:37:04.132Z,4.6846
2023-04-28T01:38:07.045Z,5.6154
2023-04-28T01:39:10.009Z,5.1692
2023-04-28T01:40:13.006Z,4.2077
2023-04-28T01:41:15.913Z,4.5462
2023-04-28T01:42:18.901Z,4.8692
2023-04-28T01:43:21.838Z,5.7462
2023-04-28T01:44:24.822Z,4.6538
2023-04-28T01:45:27.745Z,4.4923
2023-04-28T01:46:30.677Z,3.8000
2023-04-28T01:47:33.710Z,4.6077
2023-04-28T01:48:36.637Z,4.1923
2023-04-28T01:49:39.526Z,4.3308
2023-04-28T01:50:42.445Z,5.0846
2023-04-28T01:51:45.450Z,6.1846
2023-04-28T01:52:48.323Z,5.4923
2023-04-28T01:53:51.320Z,5.7385
2023-04-28T01:54:54.246Z,4.5923
2023-04-28T01:55:57.187Z,4.8846
2023-04-28T01:57:00.133Z,4.6462
2023-04-28T01:58:03.060Z,4.4154
2023-04-28T01:59:06.004Z,3.9154
2023-04-28T02:00:09.106Z,4.7308
2023-04-28T02:01:12.004Z,3.9077
2023-04-28T02:02:14.895Z,4.4231
2023-04-28T02:03:17.907Z,3.6846
2023-04-28T02:04:20.828Z,4.4077
2023-04-28T02:05:23.686Z,4.2231
2023-04-28T02:06:26.639Z,4.5154
2023-04-28T02:07:29.610Z,4.5692
2023-04-28T02:08:32.587Z,5.0692
2023-04-28T02:09:35.528Z,4.4615
2023-04-28T02:10:38.428Z,4.2000
2023-04-28T02:11:41.369Z,4.9385
2023-04-28T02:12:44.355Z,4.0538
2023-04-28T02:13:47.271Z,4.4846
2023-04-28T02:14:50.234Z,3.9923
2023-04-28T02:15:53.182Z,4.6000
2023-04-28T02:16:56.106Z,3.9923
2023-04-28T02:17:59.153Z,3.7154
2023-04-28T02:19:02.024Z,5.2308
2023-04-28T02:20:05.016Z,4.1692
2023-04-28T02:21:07.912Z,5.1769
2023-04-28T02:22:10.864Z,3.6077
2023-04-28T02:23:13.822Z,6.5692
2023-04-28T02:24:17.009Z,4.2692
2023-04-28T02:25:19.743Z,5.4462
2023-04-28T02:26:22.731Z,5.0615
2023-04-28T02:27:25.621Z,4.3615
2023-04-28T02:28:28.563Z,5.0154
2023-04-28T02:29:31.520Z,4.8308
2023-04-28T02:30:34.629Z,4.1462
2023-04-28T02:31:37.457Z,3.9231
2023-04-28T02:32:40.446Z,4.5615
2023-04-28T02:33:43.347Z,5.0846
2023-04-28T02:34:46.264Z,4.2154
2023-04-28T02:35:49.284Z,4.8154
2023-04-28T02:36:52.164Z,4.7846
2023-04-28T02:37:55.124Z,4.8154
2023-04-28T02:38:58.074Z,4.7308
2023-04-28T02:40:01.044Z,4.2154
2023-04-28T02:41:03.981Z,5.5692
2023-04-28T02:42:06.942Z,4.6154
2023-04-28T02:43:09.869Z,4.9692
2023-04-28T02:44:12.888Z,5.5385
2023-04-28T02:45:15.791Z,4.5154
2023-04-28T02:46:18.755Z,4.6385
2023-04-28T02:47:21.666Z,4.0154
2023-04-28T02:48:24.614Z,4.0462
2023-04-28T02:49:27.684Z,4.1846
2023-04-28T02:50:30.552Z,4.5308
2023-04-28T02:51:33.487Z,4.5077
2023-04-28T02:52:36.437Z,3.9308
2023-04-28T02:53:39.367Z,4.1923
2023-04-28T02:54:42.389Z,4.8154
2023-04-28T02:55:45.315Z,4.3846
2023-04-28T02:56:48.249Z,5.6923
2023-04-28T02:57:51.204Z,5.6385
2023-04-28T02:58:54.177Z,7.5615
2023-04-28T02:59:57.116Z,8.9000
2023-04-28T03:01:00.253Z,11.0231
2023-04-28T03:02:03.106Z,10.6615
2023-04-28T03:03:06.201Z,9.9846
2023-04-28T03:04:09.036Z,11.1615
2023-04-28T03:05:11.907Z,10.0769
2023-04-28T03:06:14.906Z,10.3077
2023-04-28T03:07:17.826Z,10.6077
2023-04-28T03:08:20.839Z,9.8692
2023-04-28T03:09:23.733Z,9.9923
2023-04-28T03:10:26.694Z,9.6615
2023-04-28T03:11:29.671Z,9.5308
2023-04-28T03:12:32.600Z,9.4308
2023-04-28T03:13:35.560Z,8.4769
2023-04-28T03:14:38.546Z,7.7077
2023-04-28T03:15:41.485Z,6.9923
2023-04-28T03:16:44.462Z,7.7000
2023-04-28T03:17:47.371Z,7.1615
2023-04-28T03:18:50.323Z,7.5000
2023-04-28T03:19:53.281Z,6.7538
2023-04-28T03:20:56.242Z,5.5385
2023-04-28T03:21:59.190Z,6.0923
2023-04-28T03:23:02.211Z,6.8846
2023-04-28T03:24:05.946Z,5.7846
2023-04-28T03:25:08.144Z,5.9692
2023-04-28T03:26:11.073Z,5.5538
2023-04-28T03:27:14.083Z,5.3462
2023-04-28T03:28:17.000Z,5.6231
2023-04-28T03:29:19.941Z,5.0615
2023-04-28T03:30:22.911Z,5.6385
2023-04-28T03:31:25.908Z,5.6154
2023-04-28T03:32:28.870Z,5.5923
2023-04-28T03:33:31.766Z,5.0615
2023-04-28T03:34:34.745Z,5.0385
2023-04-28T03:35:37.688Z,5.5923
2023-04-28T03:36:40.620Z,6.2769
2023-04-28T03:37:43.583Z,6.5769
2023-04-28T03:38:46.519Z,7.7077
2023-04-28T03:39:49.495Z,6.3231
2023-04-28T03:40:52.423Z,6.2154
2023-04-28T03:41:55.384Z,5.9000
2023-04-28T03:42:58.371Z,5.4692
2023-04-28T03:44:01.302Z,5.9000
2023-04-28T03:45:04.282Z,5.9846
2023-04-28T03:46:07.506Z,5.2846
2023-04-28T03:47:10.145Z,5.4308
2023-04-28T03:48:13.151Z,5.9923
2023-04-28T03:49:16.069Z,5.7538
2023-04-28T03:50:19.004Z,5.4308
2023-04-28T03:51:21.973Z,5.3769
2023-04-28T03:52:24.897Z,6.2154
2023-04-28T03:53:28.069Z,6.1385
2023-04-28T03:54:30.807Z,6.3692
2023-04-28T03:55:33.765Z,5.6385
2023-04-28T03:56:36.713Z,5.5846
2023-04-28T03:57:39.743Z,5.7692
2023-04-28T03:58:42.657Z,6.1769
2023-04-28T03:59:45.597Z,6.2231
2023-04-28T04:00:48.646Z,5.6769
2023-04-28T04:01:51.504Z,6.3615
2023-04-28T04:02:54.554Z,4.6923
2023-04-28T04:03:57.704Z,4.8231
2023-04-28T04:05:00.895Z,5.5769
2023-04-28T04:06:03.308Z,5.7385
2023-04-28T04:07:06.240Z,5.1385
2023-04-28T04:08:09.503Z,5.8385
2023-04-28T04:09:12.142Z,6.4231
2023-04-28T04:10:15.114Z,6.2000
2023-04-28T04:11:18.058Z,5.2154
2023-04-28T04:12:20.998Z,5.1538
2023-04-28T04:13:23.958Z,5.1000
2023-04-28T04:14:26.910Z,5.4846
2023-04-28T04:15:29.866Z,6.2308
2023-04-28T04:16:32.823Z,5.8231
2023-04-28T04:17:35.755Z,6.8846
2023-04-28T04:18:38.722Z,6.8692
2023-04-28T04:19:41.704Z,7.1923
2023-04-28T04:20:44.698Z,7.1692
2023-04-28T04:21:47.589Z,7.9538
2023-04-28T04:22:50.578Z,6.2462
2023-04-28T04:23:53.621Z,4.9000
2023-04-28T04:24:56.474Z,5.1000
2023-04-28T04:25:59.414Z,5.5692
2023-04-28T04:27:02.385Z,4.8923
2023-04-28T04:28:05.493Z,4.5231
2023-04-28T04:29:08.279Z,5.3077
2023-04-28T04:30:11.462Z,5.7000
2023-04-28T04:31:14.375Z,5.6615
2023-04-28T04:32:17.251Z,6.2846
2023-04-28T04:33:20.517Z,6.5385
2023-04-28T04:34:23.034Z,6.9769
2023-04-28T04:35:25.993Z,5.7462
2023-04-28T04:36:28.925Z,6.0538
2023-04-28T04:37:31.880Z,5.1231
2023-04-28T04:38:34.852Z,5.3077
2023-04-28T04:39:37.797Z,5.0154
2023-04-28T04:40:40.710Z,5.3692
2023-04-28T04:41:43.663Z,5.4077
2023-04-28T04:42:46.625Z,6.1615
2023-04-28T04:43:49.567Z,6.5923
2023-04-28T04:44:52.515Z,5.0923
2023-04-28T04:45:55.462Z,5.4846
2023-04-28T04:46:58.494Z,6.1000
2023-04-28T04:48:01.511Z,5.6846
2023-04-28T04:49:04.333Z,4.6308
2023-04-28T04:50:07.256Z,5.5923
2023-04-28T04:51:10.250Z,6.3538
2023-04-28T04:52:13.199Z,4.6692
2023-04-28T04:53:16.582Z,4.8923
2023-04-28T04:54:19.041Z,5.0923
2023-04-28T04:55:22.003Z,4.7077
2023-04-28T04:56:24.957Z,5.7385
2023-04-28T04:57:27.883Z,4.8154
2023-04-28T04:58:30.863Z,5.6154
2023-04-28T04:59:33.802Z,5.3077
2023-04-28T05:00:36.730Z,5.1077
2023-04-28T05:01:39.757Z,5.4154
2023-04-28T05:02:42.687Z,5.9923
2023-04-28T05:03:45.769Z,4.4923
2023-04-28T05:04:48.605Z,6.4462
2023-04-28T05:05:51.473Z,6.0154
2023-04-28T05:06:54.401Z,6.4231
2023-04-28T05:07:57.353Z,4.8385
2023-04-28T05:09:00.409Z,4.2769
2023-04-28T05:10:03.268Z,5.5154
2023-04-28T05:11:06.209Z,4.7231
2023-04-28T05:12:09.154Z,4.3769
2023-04-28T05:13:12.171Z,4.9154
2023-04-28T05:14:15.274Z,4.1000
2023-04-28T05:15:18.113Z,5.7462
2023-04-28T05:16:20.989Z,4.6231
2023-04-28T05:17:23.924Z,7.2692
2023-04-28T05:18:26.845Z,5.5000
2023-04-28T05:19:29.839Z,5.9462
2023-04-28T05:20:32.788Z,5.0923
2023-04-28T05:21:35.681Z,5.8385
2023-04-28T05:22:38.634Z,4.4846
2023-04-28T05:23:41.609Z,5.1154
2023-04-28T05:24:44.537Z,4.9385
2023-04-28T05:25:47.471Z,4.7000
2023-04-28T05:26:50.414Z,5.4462
2023-04-28T05:27:53.468Z,5.7385
2023-04-28T05:28:56.342Z,5.6923
2023-04-28T05:29:59.263Z,5.5923
2023-04-28T05:31:02.206Z,5.1769
2023-04-28T05:32:05.178Z,4.9615
2023-04-28T05:33:08.206Z,5.2538
2023-04-28T05:34:11.132Z,5.1000
2023-04-28T05:35:13.996Z,6.4769
2023-04-28T05:36:16.925Z,6.0308
2023-04-28T05:37:19.913Z,5.4538
2023-04-28T05:38:23.540Z,4.6231
2023-04-28T05:39:25.822Z,5.3231
2023-04-28T05:40:28.717Z,4.7308
2023-04-28T05:41:31.675Z,5.5385
2023-04-28T05:42:34.630Z,5.4538
2023-04-28T05:43:37.569Z,5.4538
2023-04-28T05:44:42.876Z,4.3538
2023-04-28T05:45:43.485Z,6.3077
2023-04-28T05:46:46.498Z,4.3231
2023-04-28T05:47:49.422Z,5.0615
2023-04-28T05:48:52.334Z,6.4769
2023-04-28T05:49:55.276Z,6.8385
2023-04-28T05:50:58.223Z,5.7154
2023-04-28T05:52:01.152Z,5.6538
2023-04-28T05:53:04.111Z,4.2538
2023-04-28T05:54:07.057Z,5.6615
2023-04-28T05:55:09.998Z,4.5538
2023-04-28T05:56:12.942Z,5.1077
2023-04-28T05:57:15.868Z,6.0846
2023-04-28T05:58:18.863Z,6.1692
2023-04-28T05:59:21.783Z,4.2692
2023-04-28T06:00:24.727Z,5.7000
2023-04-28T06:01:27.690Z,4.2154
2023-04-28T06:02:30.773Z,5.0231
2023-04-28T06:03:33.793Z,5.1692
2023-04-28T06:04:36.804Z,5.0462
2023-04-28T06:05:39.894Z,4.9538
2023-04-28T06:06:42.398Z,5.3846
2023-04-28T06:07:45.372Z,6.0923
2023-04-28T06:08:48.292Z,4.8077
2023-04-28T06:09:51.240Z,4.8000
2023-04-28T06:10:54.230Z,5.4692
2023-04-28T06:11:57.354Z,4.9846
2023-04-28T06:13:00.166Z,5.4462
2023-04-28T06:14:03.053Z,4.5077
2023-04-28T06:15:06.108Z,4.5846
2023-04-28T06:16:08.994Z,5.9077
2023-04-28T06:17:11.889Z,5.0692
2023-04-28T06:18:14.846Z,5.0231
2023-04-28T06:19:17.794Z,4.5077
2023-04-28T06:20:20.752Z,5.5000
2023-04-28T06:21:23.722Z,5.7000
2023-04-28T06:22:26.670Z,4.9538
2023-04-28T06:23:29.589Z,5.6154
2023-04-28T06:24:32.592Z,4.5846
2023-04-28T06:25:35.540Z,4.6846
2023-04-28T06:26:38.461Z,5.6538
2023-04-28T06:27:41.397Z,4.7538
2023-04-28T06:28:44.314Z,4.8154
2023-04-28T06:29:47.272Z,5.5000
2023-04-28T06:30:50.246Z,5.0846
2023-04-28T06:31:53.302Z,4.4692
2023-04-28T06:32:56.182Z,4.6846
2023-04-28T06:33:59.047Z,5.4077
2023-04-28T06:35:02.011Z,5.6692
2023-04-28T06:36:04.966Z,4.7615
2023-04-28T06:37:07.960Z,5.6231
2023-04-28T06:38:10.878Z,4.3000
2023-04-28T06:39:13.801Z,5.0000
2023-04-28T06:40:16.755Z,5.7308
2023-04-28T06:41:19.695Z,4.9538
2023-04-28T06:42:22.706Z,4.8923
2023-04-28T06:43:25.714Z,4.9923
2023-04-28T06:44:28.549Z,5.0077
2023-04-28T06:45:31.540Z,5.5615
2023-04-28T06:46:34.479Z,5.2615
2023-04-28T06:47:37.438Z,6.1385
2023-04-28T06:48:40.426Z,6.0231
2023-04-28T06:49:43.309Z,6.2923
2023-04-28T06:50:46.477Z,5.2538
2023-04-28T06:51:49.187Z,5.2769
2023-04-28T06:52:52.144Z,5.5000
2023-04-28T06:53:55.098Z,5.4000
2023-04-28T06:54:58.023Z,4.7231
2023-04-28T06:56:00.983Z,5.6385
2023-04-28T06:57:03.933Z,5.6154
2023-04-28T06:58:06.908Z,5.5385
2023-04-28T06:59:09.863Z,5.5846
2023-04-28T07:00:12.759Z,5.1692
2023-04-28T07:01:15.805Z,6.2538
2023-04-28T07:02:18.743Z,5.3769
2023-04-28T07:03:21.679Z,5.6385
2023-04-28T07:04:24.763Z,5.2538
2023-04-28T07:05:27.494Z,5.6615
2023-04-28T07:06:30.452Z,5.7385
2023-04-28T07:07:33.407Z,5.7769
2023-04-28T07:08:36.335Z,6.1000
2023-04-28T07:09:39.516Z,6.9077
2023-04-28T07:10:42.264Z,6.6000
2023-04-28T07:11:45.173Z,5.7231
2023-04-28T07:12:48.107Z,7.0692
2023-04-28T07:13:51.056Z,6.0231
2023-04-28T07:14:54.062Z,7.5000
2023-04-28T07:15:57.072Z,7.7231
2023-04-28T07:16:59.916Z,6.4462
2023-04-28T07:18:02.957Z,8.6462
2023-04-28T07:19:05.781Z,7.4385
2023-04-28T07:20:08.729Z,7.2000
2023-04-28T07:21:11.898Z,7.6077
2023-04-28T07:22:14.897Z,7.4462
2023-04-28T07:23:17.551Z,6.6385
2023-04-28T07:24:20.502Z,7.2462
2023-04-28T07:25:23.482Z,7.2154
2023-04-28T07:26:26.398Z,7.1923
2023-04-28T07:27:29.368Z,6.6231
2023-04-28T07:28:32.302Z,7.4154
2023-04-28T07:29:35.213Z,7.0846
2023-04-28T07:30:38.185Z,6.7769
2023-04-28T07:31:41.230Z,6.8000
2023-04-28T07:32:44.217Z,6.1462
2023-04-28T07:33:47.087Z,6.7308
2023-04-28T07:34:50.052Z,6.7692
2023-04-28T07:35:53.042Z,6.5308
2023-04-28T07:36:55.967Z,7.7000
2023-04-28T07:37:58.925Z,7.1846
2023-04-28T07:39:01.875Z,7.2231
2023-04-28T07:40:04.888Z,8.1538
2023-04-28T07:41:09.990Z,6.7231
2023-04-28T07:42:10.613Z,6.9692
2023-04-28T07:43:13.566Z,9.4923
2023-04-28T07:44:16.802Z,8.7385
2023-04-28T07:45:19.453Z,7.7538
2023-04-28T07:46:22.487Z,7.7462
2023-04-28T07:47:26.074Z,7.8385
2023-04-28T07:48:28.395Z,8.6231
2023-04-28T07:49:31.231Z,11.7385
2023-04-28T07:50:34.181Z,17.3077
2023-04-28T07:51:37.125Z,9.8846
2023-04-28T07:52:40.065Z,8.8615
2023-04-28T07:53:43.020Z,7.9462
2023-04-28T07:54:45.947Z,7.2846
2023-04-28T07:55:48.993Z,8.2462
2023-04-28T07:56:51.986Z,7.7385
2023-04-28T07:57:54.787Z,7.4538
2023-04-28T07:58:57.818Z,6.8000
2023-04-28T08:00:00.688Z,7.5615
2023-04-28T08:01:03.644Z,7.6538
2023-04-28T08:02:06.667Z,6.9615
2023-04-28T08:03:09.759Z,7.6308
2023-04-28T08:04:12.697Z,7.6385
2023-04-28T08:05:15.632Z,7.4154
2023-04-28T08:06:18.425Z,7.2846
2023-04-28T08:07:21.323Z,7.8385
2023-04-28T08:08:24.268Z,7.2231
2023-04-28T08:09:27.191Z,8.2846
2023-04-28T08:10:30.136Z,8.2538
2023-04-28T08:11:33.088Z,6.7538
2023-04-28T08:12:36.053Z,7.4615
2023-04-28T08:13:38.971Z,7.7308
2023-04-28T08:14:41.919Z,7.9308
2023-04-28T08:15:44.891Z,8.5923
2023-04-28T08:16:47.838Z,8.7538
2023-04-28T08:17:51.080Z,7.3615
2023-04-28T08:18:53.757Z,7.6231
2023-04-28T08:19:56.668Z,7.0462
2023-04-28T08:20:59.603Z,8.2923
2023-04-28T08:22:02.539Z,10.1923
2023-04-28T08:23:05.477Z,7.7538
2023-04-28T08:24:08.432Z,8.1077
2023-04-28T08:25:11.459Z,22.9308
2023-04-28T08:26:14.301Z,26.9769
2023-04-28T08:27:17.291Z,12.1154
2023-04-28T08:28:20.188Z,9.8923
2023-04-28T08:29:23.129Z,9.0692
2023-04-28T08:30:26.075Z,8.7538
2023-04-28T08:31:29.087Z,8.0538
2023-04-28T08:32:31.973Z,7.2615
2023-04-28T08:33:34.925Z,8.5077
2023-04-28T08:34:37.879Z,7.9692
2023-04-28T08:35:40.866Z,7.9692
2023-04-28T08:36:43.794Z,7.4692
2023-04-28T08:37:46.719Z,8.1000
2023-04-28T08:38:49.834Z,7.5000
2023-04-28T08:39:52.649Z,7.8538
2023-04-28T08:40:55.602Z,7.8462
2023-04-28T08:41:58.520Z,7.0154
2023-04-28T08:43:01.644Z,7.6769
2023-04-28T08:44:04.386Z,7.0692
2023-04-28T08:45:07.349Z,7.0846
2023-04-28T08:46:10.316Z,8.0154
2023-04-28T08:47:13.231Z,8.6615
2023-04-28T08:48:16.202Z,7.7846
2023-04-28T08:49:19.140Z,8.3385
2023-04-28T08:50:22.179Z,7.2769
2023-04-28T08:51:25.061Z,8.1385
2023-04-28T08:52:28.006Z,8.0385
2023-04-28T08:53:30.907Z,8.0769
2023-04-28T08:54:34.017Z,7.5692
2023-04-28T08:55:36.807Z,7.7538
2023-04-28T08:56:39.903Z,8.0231
2023-04-28T08:57:42.671Z,7.3615
2023-04-28T08:58:45.637Z,7.1385
2023-04-28T08:59:48.631Z,7.9923
2023-04-28T09:00:51.671Z,9.1462
2023-04-28T09:01:54.736Z,8.6000
2023-04-28T09:02:57.581Z,8.4846
2023-04-28T09:04:00.531Z,7.8538
2023-04-28T09:05:03.648Z,8.7692
2023-04-28T09:06:06.299Z,8.4154
2023-04-28T09:07:09.262Z,7.0846
2023-04-28T09:08:12.156Z,7.4846
2023-04-28T09:09:15.154Z,7.1538
2023-04-28T09:10:18.136Z,6.9154
2023-04-28T09:11:21.041Z,7.4077
2023-04-28T09:12:23.955Z,7.9769
2023-04-28T09:13:26.884Z,7.5308
2023-04-28T09:14:29.819Z,6.6538
2023-04-28T09:15:34.048Z,6.7923
2023-04-28T09:16:35.787Z,7.7154
2023-04-28T09:17:38.675Z,6.9846
2023-04-28T09:18:41.757Z,7.1231
2023-04-28T09:19:44.558Z,6.9154
2023-04-28T09:20:47.498Z,6.6154
2023-04-28T09:21:50.547Z,6.2846
2023-04-28T09:22:53.491Z,6.8077
2023-04-28T09:23:56.369Z,6.5308
2023-04-28T09:24:59.303Z,6.7692
2023-04-28T09:26:02.208Z,6.4538
2023-04-28T09:27:05.178Z,6.6769
2023-04-28T09:28:08.141Z,5.8923
2023-04-28T09:29:11.107Z,6.0385
2023-04-28T09:30:14.043Z,5.3154
2023-04-28T09:31:16.957Z,7.1615
2023-04-28T09:32:20.020Z,6.0462
2023-04-28T09:33:22.924Z,6.2231
2023-04-28T09:34:25.786Z,5.6462
2023-04-28T09:35:28.757Z,6.0077
2023-04-28T09:36:31.705Z,5.9385
2023-04-28T09:37:34.649Z,7.2769
2023-04-28T09:38:37.771Z,6.1077
2023-04-28T09:39:40.599Z,6.5769
2023-04-28T09:40:43.497Z,6.1538
2023-04-28T09:41:46.392Z,6.3615
2023-04-28T09:42:49.463Z,6.4769
2023-04-28T09:43:52.314Z,6.1923
2023-04-28T09:44:55.224Z,8.0231
2023-04-28T09:45:58.254Z,6.2846
2023-04-28T09:47:01.109Z,7.1769
2023-04-28T09:48:04.086Z,6.6462
2023-04-28T09:49:07.005Z,6.9231
2023-04-28T09:50:09.929Z,8.3231
2023-04-28T09:51:13.265Z,9.6615
2023-04-28T09:52:15.824Z,7.4385
2023-04-28T09:53:18.773Z,6.7462
2023-04-28T09:54:21.739Z,6.4769
2023-04-28T09:55:24.715Z,6.7385
2023-04-28T09:56:27.593Z,6.0000
2023-04-28T09:57:30.538Z,7.2538
2023-04-28T09:58:33.489Z,7.7846
2023-04-28T09:59:36.475Z,6.9769
2023-04-28T10:00:39.365Z,6.3462
2023-04-28T10:01:42.362Z,6.4769
2023-04-28T10:02:45.524Z,6.6462
2023-04-28T10:03:48.262Z,5.6846
2023-04-28T10:04:51.402Z,6.1769
2023-04-28T10:05:54.073Z,6.5231
2023-04-28T10:06:57.070Z,5.5769
2023-04-28T10:08:00.031Z,5.3923
2023-04-28T10:09:03.143Z,5.8769
2023-04-28T10:10:06.004Z,5.7231
2023-04-28T10:11:08.876Z,7.3538
2023-04-28T10:12:11.788Z,5.4846
2023-04-28T10:13:14.770Z,5.9154
2023-04-28T10:14:17.692Z,5.9154
2023-04-28T10:15:20.641Z,5.4077
2023-04-28T10:16:23.610Z,5.7231
2023-04-28T10:17:26.724Z,6.9308
2023-04-28T10:18:29.524Z,6.3308
2023-04-28T10:19:32.548Z,6.1462
2023-04-28T10:20:35.555Z,6.1692
2023-04-28T10:21:38.353Z,6.4308
2023-04-28T10:22:41.293Z,6.5923
2023-04-28T10:23:44.261Z,5.9231
2023-04-28T10:24:47.202Z,4.8538
2023-04-28T10:25:50.143Z,5.4923
2023-04-28T10:26:53.108Z,6.1385
2023-04-28T10:27:56.087Z,5.6615
2023-04-28T10:28:59.002Z,6.7231
2023-04-28T10:30:01.970Z,5.0462
2023-04-28T10:31:04.920Z,5.0538
2023-04-28T10:32:07.862Z,4.6846
2023-04-28T10:33:10.941Z,4.2538
2023-04-28T10:34:13.769Z,3.7846
2023-04-28T10:35:16.710Z,3.7077
2023-04-28T10:36:27.025Z,3.5769
2023-04-28T10:37:22.624Z,3.8462
2023-04-28T10:38:25.572Z,3.2538
2023-04-28T10:39:28.486Z,3.4538
2023-04-28T10:40:31.493Z,2.8231
2023-04-28T10:41:34.365Z,3.2308
2023-04-28T10:42:37.347Z,3.8000
2023-04-28T10:43:40.346Z,2.9154
2023-04-28T10:44:43.213Z,2.9462
2023-04-28T10:45:46.355Z,2.8077
2023-04-28T10:46:49.236Z,3.2077
2023-04-28T10:47:52.102Z,2.3308
2023-04-28T10:48:54.994Z,3.3846
2023-04-28T10:49:57.930Z,3.1385
2023-04-28T10:51:00.876Z,3.4231
2023-04-28T10:52:03.872Z,3.6462
2023-04-28T10:53:06.819Z,3.0154
2023-04-28T10:54:09.694Z,3.3538
2023-04-28T10:55:21.487Z,3.3923
2023-04-28T10:56:15.699Z,2.8231
2023-04-28T10:57:18.532Z,3.1231
2023-04-28T10:58:21.507Z,3.0692
2023-04-28T10:59:24.425Z,3.0615
2023-04-28T11:00:27.372Z,3.3846
2023-04-28T11:01:30.368Z,3.5154
2023-04-28T11:02:33.340Z,2.5308
2023-04-28T11:03:36.350Z,3.0462
2023-04-28T11:04:39.442Z,3.8846
2023-04-28T11:05:42.095Z,3.2308
2023-04-28T11:06:45.048Z,3.6231
2023-04-28T11:07:47.987Z,3.5231
2023-04-28T11:08:50.944Z,3.8615
2023-04-28T11:09:53.965Z,3.7077
2023-04-28T11:10:56.819Z,3.7846
2023-04-28T11:11:59.805Z,3.1000
2023-04-28T11:13:02.706Z,4.0846
2023-04-28T11:14:05.804Z,3.8923
2023-04-28T11:15:08.574Z,3.5462
2023-04-28T11:16:11.584Z,3.7769
2023-04-28T11:17:14.484Z,3.5385
2023-04-28T11:18:17.428Z,3.3923
2023-04-28T11:19:20.354Z,4.2846
2023-04-28T11:20:23.313Z,3.6385
2023-04-28T11:21:26.234Z,3.9308
2023-04-28T11:22:29.244Z,3.5462
2023-04-28T11:23:32.129Z,2.8000
2023-04-28T11:24:35.239Z,2.7000
2023-04-28T11:25:38.016Z,3.2615
2023-04-28T11:26:41.009Z,3.7692
2023-04-28T11:27:43.923Z,3.3923
2023-04-28T11:28:46.903Z,2.6846
2023-04-28T11:29:49.874Z,3.6692
2023-04-28T11:30:54.152Z,3.1769
2023-04-28T11:31:55.694Z,4.3000
2023-04-28T11:32:58.690Z,3.5769
2023-04-28T11:34:01.600Z,3.1231
2023-04-28T11:35:04.753Z,2.8000
2023-04-28T11:36:07.442Z,3.0154
2023-04-28T11:37:10.413Z,3.6231
2023-04-28T11:38:13.427Z,2.8154
2023-04-28T11:39:16.333Z,2.9308
2023-04-28T11:40:19.584Z,3.2308
2023-04-28T11:41:22.258Z,3.3923
2023-04-28T11:42:25.288Z,3.1769
2023-04-28T11:43:36.543Z,2.8615
2023-04-28T11:44:31.720Z,2.4769
2023-04-28T11:45:34.011Z,3.5923
2023-04-28T11:46:37.015Z,3.1308
2023-04-28T11:47:40.034Z,4.0308
2023-04-28T11:48:42.832Z,4.6077
2023-04-28T11:49:45.755Z,3.4000
2023-04-28T11:50:48.696Z,3.7462
2023-04-28T11:51:51.941Z,2.5000
2023-04-28T11:52:55.070Z,2.7154
2023-04-28T11:53:57.761Z,2.9769
2023-04-28T11:55:00.742Z,3.9846
2023-04-28T11:56:03.399Z,3.1538
2023-04-28T11:57:06.400Z,2.7692
2023-04-28T11:58:09.308Z,2.8692
2023-04-28T11:59:12.229Z,3.0462
2023-04-28T12:00:15.283Z,2.9923
2023-04-28T12:01:18.096Z,2.7308
2023-04-28T12:02:21.243Z,2.8231
2023-04-28T12:03:24.124Z,2.9077
2023-04-28T12:04:27.165Z,3.1385
2023-04-28T12:05:29.848Z,2.9615
2023-04-28T12:06:32.893Z,2.4769
2023-04-28T12:07:35.721Z,3.0692
2023-04-28T12:08:38.663Z,3.2077
2023-04-28T12:09:41.844Z,3.6308
2023-04-28T12:10:44.541Z,3.2308
2023-04-28T12:11:47.469Z,3.5462
2023-04-28T12:12:53.110Z,3.8462
2023-04-28T12:13:53.620Z,3.6385
2023-04-28T12:14:56.573Z,2.9615
2023-04-28T12:15:59.302Z,2.8308
2023-04-28T12:17:02.205Z,2.8615
2023-04-28T12:18:05.235Z,3.4462
2023-04-28T12:19:08.085Z,3.1231
2023-04-28T12:20:11.079Z,2.9846
2023-04-28T12:21:13.992Z,2.6846
2023-04-28T12:22:16.935Z,2.8231
2023-04-28T12:23:19.866Z,3.6385
2023-04-28T12:24:22.789Z,3.3077
2023-04-28T12:25:25.785Z,2.8846
2023-04-28T12:26:28.697Z,3.2538
2023-04-28T12:27:31.614Z,3.7000
2023-04-28T12:28:34.550Z,3.1231
2023-04-28T12:29:37.509Z,2.8692
2023-04-28T12:30:40.448Z,3.3462
2023-04-28T12:31:43.402Z,2.7077
2023-04-28T12:32:46.390Z,3.0923
2023-04-28T12:33:49.321Z,3.6077
2023-04-28T12:34:52.243Z,4.6154
2023-04-28T12:35:55.490Z,4.1769
2023-04-28T12:36:58.142Z,4.0385
2023-04-28T12:38:01.086Z,3.2692
2023-04-28T12:39:04.192Z,3.1462
2023-04-28T12:40:06.992Z,3.3000
2023-04-28T12:41:10.025Z,4.5538
2023-04-28T12:42:12.880Z,3.8385
2023-04-28T12:43:15.817Z,2.9462
2023-04-28T12:44:18.770Z,3.7923
2023-04-28T12:45:21.756Z,5.4308
2023-04-28T12:46:24.765Z,4.2923
2023-04-28T12:47:27.629Z,3.9308
2023-04-28T12:48:30.575Z,4.4462
2023-04-28T12:49:33.515Z,3.7769
2023-04-28T12:50:36.574Z,3.5769
2023-04-28T12:51:39.418Z,4.3538
2023-04-28T12:52:42.407Z,3.9692
2023-04-28T12:53:45.328Z,3.4000
2023-04-28T12:54:48.373Z,3.0846
2023-04-28T12:55:51.265Z,3.2154
2023-04-28T12:56:54.207Z,4.0769
2023-04-28T12:57:57.132Z,3.5308
2023-04-28T12:59:00.156Z,4.0769
2023-04-28T13:00:03.055Z,3.3769
2023-04-28T13:01:06.021Z,3.3769
2023-04-28T13:02:08.949Z,4.6462
2023-04-28T13:03:12.053Z,3.8615
2023-04-28T13:04:15.003Z,3.6692
2023-04-28T13:05:17.920Z,4.9538